sensor_id;sensor_type;location;lat;lon;timestamp;P1;durP1;ratioP1;P2;durP2;ratioP2
24157;SDS011;12316;50.904;4.200;2023-04-03T00:02:16;11.32;;;8.63;;
24157;SDS011;12316;50.904;4.200;2023-04-03T00:04:42;14.50;;;9.93;;
24157;SDS011;12316;50.904;4.200;2023-04-03T00:07:08;11.60;;;8.93;;
24157;SDS011;12316;50.904;4.200;2023-04-03T00:09:33;11.48;;;8.85;;
24157;SDS011;12316;50.904;4.200;2023-04-03T00:11:59;12.77;;;8.88;;
24157;SDS011;12316;50.904;4.200;2023-04-03T00:14:25;14.15;;;9.60;;
24157;SDS011;12316;50.904;4.200;2023-04-03T00:16:52;12.90;;;9.20;;
24157;SDS011;12316;50.904;4.200;2023-04-03T00:19:18;13.23;;;9.07;;
24157;SDS011;12316;50.904;4.200;2023-04-03T00:21:43;11.52;;;8.55;;
24157;SDS011;12316;50.904;4.200;2023-04-03T00:24:09;11.20;;;8.00;;
24157;SDS011;12316;50.904;4.200;2023-04-03T00:26:35;12.48;;;8.85;;
24157;SDS011;12316;50.904;4.200;2023-04-03T00:29:00;11.60;;;8.57;;
24157;SDS011;12316;50.904;4.200;2023-04-03T00:31:26;12.07;;;8.15;;
24157;SDS011;12316;50.904;4.200;2023-04-03T00:33:52;11.10;;;8.18;;
24157;SDS011;12316;50.904;4.200;2023-04-03T00:36:17;12.35;;;8.52;;
24157;SDS011;12316;50.904;4.200;2023-04-03T00:38:43;12.48;;;8.52;;
24157;SDS011;12316;50.904;4.200;2023-04-03T00:41:08;10.80;;;8.70;;
24157;SDS011;12316;50.904;4.200;2023-04-03T00:43:34;12.90;;;9.20;;
24157;SDS011;12316;50.904;4.200;2023-04-03T00:46:00;15.20;;;9.18;;
24157;SDS011;12316;50.904;4.200;2023-04-03T00:48:30;12.32;;;9.75;;
24157;SDS011;12316;50.904;4.200;2023-04-03T00:50:59;14.10;;;9.73;;
24157;SDS011;12316;50.904;4.200;2023-04-03T00:53:27;13.73;;;9.27;;
24157;SDS011;12316;50.904;4.200;2023-04-03T00:56:00;10.65;;;8.43;;
24157;SDS011;12316;50.904;4.200;2023-04-03T00:58:28;14.40;;;9.00;;
24157;SDS011;12316;50.904;4.200;2023-04-03T01:03:25;12.68;;;8.25;;
24157;SDS011;12316;50.904;4.200;2023-04-03T01:05:51;12.30;;;8.68;;
24157;SDS011;12316;50.904;4.200;2023-04-03T01:08:16;11.57;;;8.43;;
24157;SDS011;12316;50.904;4.200;2023-04-03T01:10:42;13.05;;;8.40;;
24157;SDS011;12316;50.904;4.200;2023-04-03T01:13:19;14.00;;;8.68;;
24157;SDS011;12316;50.904;4.200;2023-04-03T01:15:49;12.50;;;8.75;;
24157;SDS011;12316;50.904;4.200;2023-04-03T01:18:15;12.20;;;8.23;;
24157;SDS011;12316;50.904;4.200;2023-04-03T01:23:27;11.55;;;8.57;;
24157;SDS011;12316;50.904;4.200;2023-04-03T01:26:15;11.27;;;7.85;;
24157;SDS011;12316;50.904;4.200;2023-04-03T01:28:41;13.73;;;8.27;;
24157;SDS011;12316;50.904;4.200;2023-04-03T01:34:08;13.13;;;8.38;;
24157;SDS011;12316;50.904;4.200;2023-04-03T01:36:34;11.35;;;7.85;;
24157;SDS011;12316;50.904;4.200;2023-04-03T01:39:00;12.02;;;8.00;;
24157;SDS011;12316;50.904;4.200;2023-04-03T01:41:26;11.52;;;7.53;;
24157;SDS011;12316;50.904;4.200;2023-04-03T01:43:52;12.50;;;7.72;;
24157;SDS011;12316;50.904;4.200;2023-04-03T01:46:17;11.35;;;7.90;;
24157;SDS011;12316;50.904;4.200;2023-04-03T01:48:44;10.75;;;7.75;;
24157;SDS011;12316;50.904;4.200;2023-04-03T01:51:10;9.50;;;7.32;;
24157;SDS011;12316;50.904;4.200;2023-04-03T01:53:36;11.00;;;7.60;;
24157;SDS011;12316;50.904;4.200;2023-04-03T01:56:02;10.52;;;7.38;;
24157;SDS011;12316;50.904;4.200;2023-04-03T01:58:28;8.80;;;7.50;;
24157;SDS011;12316;50.904;4.200;2023-04-03T02:00:54;11.50;;;7.90;;
24157;SDS011;12316;50.904;4.200;2023-04-03T02:03:19;11.50;;;7.50;;
24157;SDS011;12316;50.904;4.200;2023-04-03T02:05:45;11.13;;;7.68;;
24157;SDS011;12316;50.904;4.200;2023-04-03T02:08:11;9.93;;;7.68;;
24157;SDS011;12316;50.904;4.200;2023-04-03T02:10:37;8.80;;;7.13;;
24157;SDS011;12316;50.904;4.200;2023-04-03T02:13:03;8.02;;;6.80;;
24157;SDS011;12316;50.904;4.200;2023-04-03T02:15:29;8.80;;;6.72;;
24157;SDS011;12316;50.904;4.200;2023-04-03T02:17:54;10.40;;;6.75;;
24157;SDS011;12316;50.904;4.200;2023-04-03T02:20:20;10.73;;;7.20;;
24157;SDS011;12316;50.904;4.200;2023-04-03T02:22:46;9.32;;;6.90;;
24157;SDS011;12316;50.904;4.200;2023-04-03T02:25:12;8.90;;;6.50;;
24157;SDS011;12316;50.904;4.200;2023-04-03T02:27:37;8.93;;;6.47;;
24157;SDS011;12316;50.904;4.200;2023-04-03T02:30:04;9.50;;;7.20;;
24157;SDS011;12316;50.904;4.200;2023-04-03T02:32:31;10.35;;;7.15;;
24157;SDS011;12316;50.904;4.200;2023-04-03T02:34:56;11.45;;;7.18;;
24157;SDS011;12316;50.904;4.200;2023-04-03T02:37:22;8.77;;;6.70;;
24157;SDS011;12316;50.904;4.200;2023-04-03T02:39:47;10.10;;;6.85;;
24157;SDS011;12316;50.904;4.200;2023-04-03T02:42:13;11.40;;;6.85;;
24157;SDS011;12316;50.904;4.200;2023-04-03T02:44:39;12.10;;;6.90;;
24157;SDS011;12316;50.904;4.200;2023-04-03T02:47:05;12.02;;;7.10;;
24157;SDS011;12316;50.904;4.200;2023-04-03T02:49:30;11.15;;;7.40;;
24157;SDS011;12316;50.904;4.200;2023-04-03T02:51:56;9.48;;;7.00;;
24157;SDS011;12316;50.904;4.200;2023-04-03T02:54:22;8.77;;;7.00;;
24157;SDS011;12316;50.904;4.200;2023-04-03T02:56:49;13.65;;;6.93;;
24157;SDS011;12316;50.904;4.200;2023-04-03T02:59:16;10.95;;;7.80;;
24157;SDS011;12316;50.904;4.200;2023-04-03T03:01:41;10.48;;;7.20;;
24157;SDS011;12316;50.904;4.200;2023-04-03T03:04:07;8.98;;;6.72;;
24157;SDS011;12316;50.904;4.200;2023-04-03T03:06:33;10.57;;;6.60;;
24157;SDS011;12316;50.904;4.200;2023-04-03T03:08:58;11.68;;;7.20;;
24157;SDS011;12316;50.904;4.200;2023-04-03T03:11:24;10.45;;;6.95;;
24157;SDS011;12316;50.904;4.200;2023-04-03T03:13:50;10.40;;;6.70;;
24157;SDS011;12316;50.904;4.200;2023-04-03T03:16:15;10.45;;;6.57;;
24157;SDS011;12316;50.904;4.200;2023-04-03T03:18:41;9.35;;;6.75;;
24157;SDS011;12316;50.904;4.200;2023-04-03T03:21:08;11.27;;;7.32;;
24157;SDS011;12316;50.904;4.200;2023-04-03T03:23:34;9.07;;;7.13;;
24157;SDS011;12316;50.904;4.200;2023-04-03T03:26:03;8.05;;;6.72;;
24157;SDS011;12316;50.904;4.200;2023-04-03T03:28:30;10.43;;;7.00;;
24157;SDS011;12316;50.904;4.200;2023-04-03T03:30:56;10.77;;;7.65;;
24157;SDS011;12316;50.904;4.200;2023-04-03T03:33:23;9.57;;;6.93;;
24157;SDS011;12316;50.904;4.200;2023-04-03T03:35:50;13.27;;;7.30;;
24157;SDS011;12316;50.904;4.200;2023-04-03T03:38:16;9.88;;;6.82;;
24157;SDS011;12316;50.904;4.200;2023-04-03T03:40:43;8.32;;;6.38;;
24157;SDS011;12316;50.904;4.200;2023-04-03T03:43:08;9.15;;;6.95;;
24157;SDS011;12316;50.904;4.200;2023-04-03T03:45:34;9.27;;;6.88;;
24157;SDS011;12316;50.904;4.200;2023-04-03T03:48:00;13.57;;;7.60;;
24157;SDS011;12316;50.904;4.200;2023-04-03T03:50:26;9.73;;;7.32;;
24157;SDS011;12316;50.904;4.200;2023-04-03T03:52:52;10.13;;;7.30;;
24157;SDS011;12316;50.904;4.200;2023-04-03T03:55:18;8.95;;;7.20;;
24157;SDS011;12316;50.904;4.200;2023-04-03T03:57:43;10.63;;;7.30;;
24157;SDS011;12316;50.904;4.200;2023-04-03T04:00:09;11.25;;;7.60;;
24157;SDS011;12316;50.904;4.200;2023-04-03T04:02:35;9.98;;;7.47;;
24157;SDS011;12316;50.904;4.200;2023-04-03T04:05:01;12.35;;;8.25;;
24157;SDS011;12316;50.904;4.200;2023-04-03T04:07:26;11.43;;;7.97;;
24157;SDS011;12316;50.904;4.200;2023-04-03T04:09:54;9.43;;;7.65;;
24157;SDS011;12316;50.904;4.200;2023-04-03T04:12:20;11.02;;;7.90;;
24157;SDS011;12316;50.904;4.200;2023-04-03T04:14:45;15.60;;;9.18;;
24157;SDS011;12316;50.904;4.200;2023-04-03T04:17:14;9.90;;;8.13;;
24157;SDS011;12316;50.904;4.200;2023-04-03T04:19:40;10.52;;;7.80;;
24157;SDS011;12316;50.904;4.200;2023-04-03T04:22:06;12.00;;;8.80;;
24157;SDS011;12316;50.904;4.200;2023-04-03T04:24:32;14.25;;;8.95;;
24157;SDS011;12316;50.904;4.200;2023-04-03T04:26:57;11.55;;;8.43;;
24157;SDS011;12316;50.904;4.200;2023-04-03T04:29:23;14.23;;;9.30;;
24157;SDS011;12316;50.904;4.200;2023-04-03T04:31:49;10.68;;;8.95;;
24157;SDS011;12316;50.904;4.200;2023-04-03T04:34:15;13.38;;;9.27;;
24157;SDS011;12316;50.904;4.200;2023-04-03T04:36:40;14.15;;;9.90;;
24157;SDS011;12316;50.904;4.200;2023-04-03T04:39:06;13.55;;;9.32;;
24157;SDS011;12316;50.904;4.200;2023-04-03T04:41:32;13.02;;;8.85;;
24157;SDS011;12316;50.904;4.200;2023-04-03T04:43:58;11.82;;;9.25;;
24157;SDS011;12316;50.904;4.200;2023-04-03T04:46:24;15.00;;;9.65;;
24157;SDS011;12316;50.904;4.200;2023-04-03T04:48:50;12.65;;;9.93;;
24157;SDS011;12316;50.904;4.200;2023-04-03T04:51:15;11.18;;;8.93;;
24157;SDS011;12316;50.904;4.200;2023-04-03T04:53:41;13.57;;;9.70;;
24157;SDS011;12316;50.904;4.200;2023-04-03T04:56:07;14.45;;;10.57;;
24157;SDS011;12316;50.904;4.200;2023-04-03T04:58:34;14.15;;;10.13;;
24157;SDS011;12316;50.904;4.200;2023-04-03T05:01:00;13.15;;;10.30;;
24157;SDS011;12316;50.904;4.200;2023-04-03T05:03:30;13.50;;;10.43;;
24157;SDS011;12316;50.904;4.200;2023-04-03T05:05:56;13.68;;;9.60;;
24157;SDS011;12316;50.904;4.200;2023-04-03T05:08:22;13.52;;;10.27;;
24157;SDS011;12316;50.904;4.200;2023-04-03T05:10:47;12.43;;;9.93;;
24157;SDS011;12316;50.904;4.200;2023-04-03T05:13:13;14.73;;;10.93;;
24157;SDS011;12316;50.904;4.200;2023-04-03T05:15:39;14.98;;;10.82;;
24157;SDS011;12316;50.904;4.200;2023-04-03T05:18:05;14.38;;;10.98;;
24157;SDS011;12316;50.904;4.200;2023-04-03T05:20:31;13.80;;;10.77;;
24157;SDS011;12316;50.904;4.200;2023-04-03T05:22:57;13.88;;;11.13;;
24157;SDS011;12316;50.904;4.200;2023-04-03T05:25:23;20.50;;;11.82;;
24157;SDS011;12316;50.904;4.200;2023-04-03T05:27:49;14.63;;;10.60;;
24157;SDS011;12316;50.904;4.200;2023-04-03T05:30:15;18.55;;;11.55;;
24157;SDS011;12316;50.904;4.200;2023-04-03T05:32:41;14.30;;;10.27;;
24157;SDS011;12316;50.904;4.200;2023-04-03T05:35:07;16.35;;;11.05;;
24157;SDS011;12316;50.904;4.200;2023-04-03T05:37:33;14.93;;;11.32;;
24157;SDS011;12316;50.904;4.200;2023-04-03T05:39:59;14.27;;;10.80;;
24157;SDS011;12316;50.904;4.200;2023-04-03T05:42:25;13.70;;;11.10;;
24157;SDS011;12316;50.904;4.200;2023-04-03T05:44:50;17.55;;;11.07;;
24157;SDS011;12316;50.904;4.200;2023-04-03T05:47:16;16.20;;;12.02;;
24157;SDS011;12316;50.904;4.200;2023-04-03T05:49:42;19.50;;;11.73;;
24157;SDS011;12316;50.904;4.200;2023-04-03T05:52:29;14.32;;;10.52;;
24157;SDS011;12316;50.904;4.200;2023-04-03T05:54:57;13.80;;;10.98;;
24157;SDS011;12316;50.904;4.200;2023-04-03T05:57:22;15.48;;;11.07;;
24157;SDS011;12316;50.904;4.200;2023-04-03T05:59:48;16.48;;;11.48;;
24157;SDS011;12316;50.904;4.200;2023-04-03T06:02:15;17.00;;;12.45;;
24157;SDS011;12316;50.904;4.200;2023-04-03T06:04:47;16.20;;;11.65;;
24157;SDS011;12316;50.904;4.200;2023-04-03T06:07:17;14.43;;;11.57;;
24157;SDS011;12316;50.904;4.200;2023-04-03T06:09:46;15.07;;;11.75;;
24157;SDS011;12316;50.904;4.200;2023-04-03T06:12:12;11.90;;;10.00;;
24157;SDS011;12316;50.904;4.200;2023-04-03T06:14:38;12.55;;;9.93;;
24157;SDS011;12316;50.904;4.200;2023-04-03T06:17:03;12.90;;;8.88;;
24157;SDS011;12316;50.904;4.200;2023-04-03T06:19:29;12.35;;;9.07;;
24157;SDS011;12316;50.904;4.200;2023-04-03T06:21:55;10.90;;;8.10;;
24157;SDS011;12316;50.904;4.200;2023-04-03T06:24:21;10.13;;;8.50;;
24157;SDS011;12316;50.904;4.200;2023-04-03T06:26:48;12.18;;;8.00;;
24157;SDS011;12316;50.904;4.200;2023-04-03T06:29:16;12.38;;;8.60;;
24157;SDS011;12316;50.904;4.200;2023-04-03T06:31:42;11.77;;;8.98;;
24157;SDS011;12316;50.904;4.200;2023-04-03T06:34:08;13.65;;;9.00;;
24157;SDS011;12316;50.904;4.200;2023-04-03T06:36:36;12.05;;;8.93;;
24157;SDS011;12316;50.904;4.200;2023-04-03T06:39:02;13.18;;;9.05;;
24157;SDS011;12316;50.904;4.200;2023-04-03T06:41:28;11.88;;;9.52;;
24157;SDS011;12316;50.904;4.200;2023-04-03T06:43:54;15.48;;;10.10;;
24157;SDS011;12316;50.904;4.200;2023-04-03T06:46:21;14.82;;;9.93;;
24157;SDS011;12316;50.904;4.200;2023-04-03T06:48:48;14.70;;;9.98;;
24157;SDS011;12316;50.904;4.200;2023-04-03T06:53:53;13.98;;;9.65;;
24157;SDS011;12316;50.904;4.200;2023-04-03T06:56:20;12.48;;;9.73;;
24157;SDS011;12316;50.904;4.200;2023-04-03T06:58:47;14.50;;;10.55;;
24157;SDS011;12316;50.904;4.200;2023-04-03T07:01:14;13.05;;;9.88;;
24157;SDS011;12316;50.904;4.200;2023-04-03T07:03:41;12.57;;;9.55;;
24157;SDS011;12316;50.904;4.200;2023-04-03T07:06:09;14.93;;;10.15;;
24157;SDS011;12316;50.904;4.200;2023-04-03T07:08:37;12.57;;;10.38;;
24157;SDS011;12316;50.904;4.200;2023-04-03T07:11:03;13.88;;;10.27;;
24157;SDS011;12316;50.904;4.200;2023-04-03T07:13:29;16.65;;;10.50;;
24157;SDS011;12316;50.904;4.200;2023-04-03T07:15:55;14.18;;;10.15;;
24157;SDS011;12316;50.904;4.200;2023-04-03T07:18:21;12.00;;;10.55;;
24157;SDS011;12316;50.904;4.200;2023-04-03T07:20:47;11.90;;;10.23;;
24157;SDS011;12316;50.904;4.200;2023-04-03T07:23:13;12.45;;;9.55;;
24157;SDS011;12316;50.904;4.200;2023-04-03T07:25:43;15.02;;;10.07;;
24157;SDS011;12316;50.904;4.200;2023-04-03T07:28:09;15.85;;;10.20;;
24157;SDS011;12316;50.904;4.200;2023-04-03T07:30:41;17.58;;;10.90;;
24157;SDS011;12316;50.904;4.200;2023-04-03T07:33:11;14.98;;;10.77;;
24157;SDS011;12316;50.904;4.200;2023-04-03T07:35:38;16.63;;;11.10;;
24157;SDS011;12316;50.904;4.200;2023-04-03T07:38:04;15.93;;;10.48;;
24157;SDS011;12316;50.904;4.200;2023-04-03T07:40:32;12.73;;;10.60;;
24157;SDS011;12316;50.904;4.200;2023-04-03T07:42:59;16.40;;;10.52;;
24157;SDS011;12316;50.904;4.200;2023-04-03T07:45:24;14.65;;;9.65;;
24157;SDS011;12316;50.904;4.200;2023-04-03T07:47:50;12.82;;;9.63;;
24157;SDS011;12316;50.904;4.200;2023-04-03T07:50:16;15.23;;;9.63;;
24157;SDS011;12316;50.904;4.200;2023-04-03T07:52:43;13.88;;;10.00;;
24157;SDS011;12316;50.904;4.200;2023-04-03T07:55:09;12.27;;;9.45;;
24157;SDS011;12316;50.904;4.200;2023-04-03T07:57:35;14.75;;;10.18;;
24157;SDS011;12316;50.904;4.200;2023-04-03T08:00:01;13.90;;;9.18;;
24157;SDS011;12316;50.904;4.200;2023-04-03T08:02:28;11.68;;;7.90;;
24157;SDS011;12316;50.904;4.200;2023-04-03T08:04:53;14.50;;;7.90;;
24157;SDS011;12316;50.904;4.200;2023-04-03T08:07:20;12.50;;;7.75;;
24157;SDS011;12316;50.904;4.200;2023-04-03T08:09:45;10.68;;;8.35;;
24157;SDS011;12316;50.904;4.200;2023-04-03T08:12:11;13.73;;;8.30;;
24157;SDS011;12316;50.904;4.200;2023-04-03T08:14:37;9.90;;;7.68;;
24157;SDS011;12316;50.904;4.200;2023-04-03T08:17:02;9.98;;;7.45;;
24157;SDS011;12316;50.904;4.200;2023-04-03T08:19:29;11.63;;;7.43;;
24157;SDS011;12316;50.904;4.200;2023-04-03T08:21:56;9.73;;;7.18;;
24157;SDS011;12316;50.904;4.200;2023-04-03T08:24:23;11.93;;;7.10;;
24157;SDS011;12316;50.904;4.200;2023-04-03T08:26:49;10.98;;;7.40;;
24157;SDS011;12316;50.904;4.200;2023-04-03T08:29:15;12.10;;;7.22;;
24157;SDS011;12316;50.904;4.200;2023-04-03T08:31:41;9.55;;;7.15;;
24157;SDS011;12316;50.904;4.200;2023-04-03T08:34:06;10.48;;;7.50;;
24157;SDS011;12316;50.904;4.200;2023-04-03T08:36:33;10.15;;;8.07;;
24157;SDS011;12316;50.904;4.200;2023-04-03T08:39:00;15.95;;;9.88;;
24157;SDS011;12316;50.904;4.200;2023-04-03T08:46:48;10.82;;;7.25;;
24157;SDS011;12316;50.904;4.200;2023-04-03T08:49:24;13.40;;;8.20;;
24157;SDS011;12316;50.904;4.200;2023-04-03T08:51:56;19.55;;;12.40;;
24157;SDS011;12316;50.904;4.200;2023-04-03T08:54:30;13.70;;;10.27;;
24157;SDS011;12316;50.904;4.200;2023-04-03T08:57:06;12.93;;;8.90;;
24157;SDS011;12316;50.904;4.200;2023-04-03T08:59:36;13.43;;;8.15;;
24157;SDS011;12316;50.904;4.200;2023-04-03T09:02:11;11.60;;;8.00;;
24157;SDS011;12316;50.904;4.200;2023-04-03T09:05:01;10.32;;;7.35;;
24157;SDS011;12316;50.904;4.200;2023-04-03T09:07:33;11.23;;;6.40;;
24157;SDS011;12316;50.904;4.200;2023-04-03T09:10:08;9.65;;;5.82;;
24157;SDS011;12316;50.904;4.200;2023-04-03T09:12:38;9.23;;;6.03;;
24157;SDS011;12316;50.904;4.200;2023-04-03T09:15:25;9.73;;;5.70;;
24157;SDS011;12316;50.904;4.200;2023-04-03T09:23:33;9.65;;;5.45;;
24157;SDS011;12316;50.904;4.200;2023-04-03T09:26:58;8.13;;;4.32;;
24157;SDS011;12316;50.904;4.200;2023-04-03T09:29:22;6.10;;;3.80;;
24157;SDS011;12316;50.904;4.200;2023-04-03T09:31:50;7.03;;;3.85;;
24157;SDS011;12316;50.904;4.200;2023-04-03T09:36:56;6.45;;;3.47;;
24157;SDS011;12316;50.904;4.200;2023-04-03T09:39:26;7.97;;;3.60;;
24157;SDS011;12316;50.904;4.200;2023-04-03T09:44:29;8.27;;;3.47;;
24157;SDS011;12316;50.904;4.200;2023-04-03T09:46:59;8.80;;;3.38;;
24157;SDS011;12316;50.904;4.200;2023-04-03T09:49:25;5.50;;;3.45;;
24157;SDS011;12316;50.904;4.200;2023-04-03T09:51:51;5.38;;;3.15;;
24157;SDS011;12316;50.904;4.200;2023-04-03T09:54:26;6.18;;;3.10;;
24157;SDS011;12316;50.904;4.200;2023-04-03T09:57:12;4.47;;;2.70;;
24157;SDS011;12316;50.904;4.200;2023-04-03T09:59:46;4.60;;;2.80;;
24157;SDS011;12316;50.904;4.200;2023-04-03T10:04:58;6.10;;;2.78;;
24157;SDS011;12316;50.904;4.200;2023-04-03T10:07:29;4.85;;;2.40;;
24157;SDS011;12316;50.904;4.200;2023-04-03T10:10:15;4.10;;;2.53;;
24157;SDS011;12316;50.904;4.200;2023-04-03T10:12:42;7.05;;;2.90;;
24157;SDS011;12316;50.904;4.200;2023-04-03T10:15:12;4.47;;;2.40;;
24157;SDS011;12316;50.904;4.200;2023-04-03T10:17:53;3.78;;;2.10;;
24157;SDS011;12316;50.904;4.200;2023-04-03T10:20:35;5.20;;;2.77;;
24157;SDS011;12316;50.904;4.200;2023-04-03T10:25:41;4.38;;;2.13;;
24157;SDS011;12316;50.904;4.200;2023-04-03T10:30:58;5.97;;;2.65;;
24157;SDS011;12316;50.904;4.200;2023-04-03T10:47:20;4.38;;;2.22;;
24157;SDS011;12316;50.904;4.200;2023-04-03T10:49:56;3.40;;;2.08;;
24157;SDS011;12316;50.904;4.200;2023-04-03T10:52:57;4.05;;;2.20;;
24157;SDS011;12316;50.904;4.200;2023-04-03T10:55:37;4.07;;;2.25;;
24157;SDS011;12316;50.904;4.200;2023-04-03T10:58:13;5.18;;;2.17;;
24157;SDS011;12316;50.904;4.200;2023-04-03T11:00:58;3.80;;;1.98;;
24157;SDS011;12316;50.904;4.200;2023-04-03T11:03:32;3.03;;;1.90;;
24157;SDS011;12316;50.904;4.200;2023-04-03T11:06:02;5.35;;;2.30;;
24157;SDS011;12316;50.904;4.200;2023-04-03T11:08:37;4.95;;;1.90;;
24157;SDS011;12316;50.904;4.200;2023-04-03T11:11:06;4.93;;;2.13;;
24157;SDS011;12316;50.904;4.200;2023-04-03T11:13:55;3.97;;;1.90;;
24157;SDS011;12316;50.904;4.200;2023-04-03T11:16:43;5.65;;;1.80;;
24157;SDS011;12316;50.904;4.200;2023-04-03T11:19:23;3.42;;;1.95;;
24157;SDS011;12316;50.904;4.200;2023-04-03T11:22:42;5.32;;;2.13;;
24157;SDS011;12316;50.904;4.200;2023-04-03T11:24:56;4.07;;;2.10;;
24157;SDS011;12316;50.904;4.200;2023-04-03T11:27:30;5.88;;;1.65;;
24157;SDS011;12316;50.904;4.200;2023-04-03T11:30:03;6.07;;;1.80;;
24157;SDS011;12316;50.904;4.200;2023-04-03T11:35:17;4.53;;;2.03;;
24157;SDS011;12316;50.904;4.200;2023-04-03T11:37:46;4.38;;;2.03;;
24157;SDS011;12316;50.904;4.200;2023-04-03T11:42:46;4.10;;;2.03;;
24157;SDS011;12316;50.904;4.200;2023-04-03T11:47:53;4.72;;;1.80;;
24157;SDS011;12316;50.904;4.200;2023-04-03T12:03:30;4.38;;;1.90;;
24157;SDS011;12316;50.904;4.200;2023-04-03T12:16:07;5.43;;;2.03;;
24157;SDS011;12316;50.904;4.200;2023-04-03T12:21:19;6.60;;;2.13;;
24157;SDS011;12316;50.904;4.200;2023-04-03T12:24:03;6.47;;;1.98;;
24157;SDS011;12316;50.904;4.200;2023-04-03T12:29:02;4.43;;;1.90;;
24157;SDS011;12316;50.904;4.200;2023-04-03T12:48:46;2.97;;;1.58;;
24157;SDS011;12316;50.904;4.200;2023-04-03T12:51:17;3.75;;;1.80;;
24157;SDS011;12316;50.904;4.200;2023-04-03T12:53:46;6.43;;;1.80;;
24157;SDS011;12316;50.904;4.200;2023-04-03T12:58:46;4.43;;;1.73;;
24157;SDS011;12316;50.904;4.200;2023-04-03T13:01:13;3.17;;;1.60;;
24157;SDS011;12316;50.904;4.200;2023-04-03T13:03:44;2.97;;;1.60;;
24157;SDS011;12316;50.904;4.200;2023-04-03T13:06:45;4.85;;;1.58;;
24157;SDS011;12316;50.904;4.200;2023-04-03T13:11:35;2.80;;;1.70;;
24157;SDS011;12316;50.904;4.200;2023-04-03T13:14:14;6.95;;;1.80;;
24157;SDS011;12316;50.904;4.200;2023-04-03T13:16:42;5.18;;;1.48;;
24157;SDS011;12316;50.904;4.200;2023-04-03T13:19:22;3.17;;;1.40;;
24157;SDS011;12316;50.904;4.200;2023-04-03T13:21:50;3.35;;;1.40;;
24157;SDS011;12316;50.904;4.200;2023-04-03T13:24:27;3.17;;;1.45;;
24157;SDS011;12316;50.904;4.200;2023-04-03T13:26:55;4.05;;;1.60;;
24157;SDS011;12316;50.904;4.200;2023-04-03T13:29:22;5.05;;;1.60;;
24157;SDS011;12316;50.904;4.200;2023-04-03T13:32:00;4.35;;;1.60;;
24157;SDS011;12316;50.904;4.200;2023-04-03T13:34:37;4.10;;;1.60;;
24157;SDS011;12316;50.904;4.200;2023-04-03T13:37:05;2.67;;;1.40;;
24157;SDS011;12316;50.904;4.200;2023-04-03T13:39:39;3.60;;;1.65;;
24157;SDS011;12316;50.904;4.200;2023-04-03T13:42:22;4.57;;;1.58;;
24157;SDS011;12316;50.904;4.200;2023-04-03T13:45:05;4.07;;;1.60;;
24157;SDS011;12316;50.904;4.200;2023-04-03T13:47:38;2.85;;;1.45;;
24157;SDS011;12316;50.904;4.200;2023-04-03T13:52:51;3.83;;;1.85;;
24157;SDS011;12316;50.904;4.200;2023-04-03T13:58:00;3.00;;;1.50;;
24157;SDS011;12316;50.904;4.200;2023-04-03T14:00:39;2.78;;;1.55;;
24157;SDS011;12316;50.904;4.200;2023-04-03T14:03:30;3.60;;;1.50;;
24157;SDS011;12316;50.904;4.200;2023-04-03T14:06:06;3.80;;;1.67;;
24157;SDS011;12316;50.904;4.200;2023-04-03T14:08:33;3.60;;;1.58;;
24157;SDS011;12316;50.904;4.200;2023-04-03T14:10:59;3.42;;;1.77;;
24157;SDS011;12316;50.904;4.200;2023-04-03T14:13:25;5.88;;;1.70;;
24157;SDS011;12316;50.904;4.200;2023-04-03T14:15:50;3.10;;;1.70;;
24157;SDS011;12316;50.904;4.200;2023-04-03T14:18:17;3.45;;;1.63;;
24157;SDS011;12316;50.904;4.200;2023-04-03T14:20:45;2.80;;;1.60;;
24157;SDS011;12316;50.904;4.200;2023-04-03T14:23:12;5.35;;;1.75;;
24157;SDS011;12316;50.904;4.200;2023-04-03T14:25:38;3.40;;;1.70;;
24157;SDS011;12316;50.904;4.200;2023-04-03T14:28:18;4.93;;;1.73;;
24157;SDS011;12316;50.904;4.200;2023-04-03T14:30:46;3.58;;;1.73;;
24157;SDS011;12316;50.904;4.200;2023-04-03T14:33:14;3.72;;;1.85;;
24157;SDS011;12316;50.904;4.200;2023-04-03T14:35:41;4.80;;;1.70;;
24157;SDS011;12316;50.904;4.200;2023-04-03T14:38:28;2.78;;;1.65;;
24157;SDS011;12316;50.904;4.200;2023-04-03T14:40:55;4.10;;;1.80;;
24157;SDS011;12316;50.904;4.200;2023-04-03T14:43:22;10.30;;;1.90;;
24157;SDS011;12316;50.904;4.200;2023-04-03T14:45:49;3.80;;;1.90;;
24157;SDS011;12316;50.904;4.200;2023-04-03T14:48:17;3.03;;;1.80;;
24157;SDS011;12316;50.904;4.200;2023-04-03T14:50:46;2.60;;;1.52;;
24157;SDS011;12316;50.904;4.200;2023-04-03T14:53:12;3.13;;;1.60;;
24157;SDS011;12316;50.904;4.200;2023-04-03T14:55:39;4.32;;;1.65;;
24157;SDS011;12316;50.904;4.200;2023-04-03T14:58:09;4.20;;;1.70;;
24157;SDS011;12316;50.904;4.200;2023-04-03T15:00:42;6.50;;;1.80;;
24157;SDS011;12316;50.904;4.200;2023-04-03T15:03:15;5.85;;;1.83;;
24157;SDS011;12316;50.904;4.200;2023-04-03T15:05:43;4.13;;;1.70;;
24157;SDS011;12316;50.904;4.200;2023-04-03T15:08:16;2.80;;;1.60;;
24157;SDS011;12316;50.904;4.200;2023-04-03T15:10:47;3.90;;;1.75;;
24157;SDS011;12316;50.904;4.200;2023-04-03T15:13:13;5.55;;;1.63;;
24157;SDS011;12316;50.904;4.200;2023-04-03T15:15:39;3.13;;;1.42;;
24157;SDS011;12316;50.904;4.200;2023-04-03T15:18:05;3.55;;;1.40;;
24157;SDS011;12316;50.904;4.200;2023-04-03T15:20:32;3.22;;;1.50;;
24157;SDS011;12316;50.904;4.200;2023-04-03T15:22:58;3.47;;;1.50;;
24157;SDS011;12316;50.904;4.200;2023-04-03T15:25:26;5.03;;;1.58;;
24157;SDS011;12316;50.904;4.200;2023-04-03T15:27:55;4.13;;;1.50;;
24157;SDS011;12316;50.904;4.200;2023-04-03T15:30:21;4.20;;;1.40;;
24157;SDS011;12316;50.904;4.200;2023-04-03T15:32:47;2.40;;;1.30;;
24157;SDS011;12316;50.904;4.200;2023-04-03T15:35:13;5.03;;;1.60;;
24157;SDS011;12316;50.904;4.200;2023-04-03T15:37:39;4.63;;;1.40;;
24157;SDS011;12316;50.904;4.200;2023-04-03T15:40:05;4.97;;;1.60;;
24157;SDS011;12316;50.904;4.200;2023-04-03T15:42:31;4.50;;;1.58;;
24157;SDS011;12316;50.904;4.200;2023-04-03T15:44:57;2.45;;;1.25;;
24157;SDS011;12316;50.904;4.200;2023-04-03T15:47:23;3.90;;;1.23;;
24157;SDS011;12316;50.904;4.200;2023-04-03T15:49:49;6.13;;;1.45;;
24157;SDS011;12316;50.904;4.200;2023-04-03T15:52:15;3.45;;;1.20;;
24157;SDS011;12316;50.904;4.200;2023-04-03T15:54:41;7.20;;;1.65;;
24157;SDS011;12316;50.904;4.200;2023-04-03T15:57:06;2.35;;;1.35;;
24157;SDS011;12316;50.904;4.200;2023-04-03T15:59:32;3.40;;;1.77;;
24157;SDS011;12316;50.904;4.200;2023-04-03T16:01:58;4.40;;;1.42;;
24157;SDS011;12316;50.904;4.200;2023-04-03T16:04:26;2.65;;;1.38;;
24157;SDS011;12316;50.904;4.200;2023-04-03T16:06:52;2.78;;;1.13;;
24157;SDS011;12316;50.904;4.200;2023-04-03T16:09:18;5.75;;;1.40;;
24157;SDS011;12316;50.904;4.200;2023-04-03T16:11:43;3.83;;;1.60;;
24157;SDS011;12316;50.904;4.200;2023-04-03T16:14:09;3.40;;;1.50;;
24157;SDS011;12316;50.904;4.200;2023-04-03T16:16:35;3.10;;;1.55;;
24157;SDS011;12316;50.904;4.200;2023-04-03T16:19:02;2.17;;;1.30;;
24157;SDS011;12316;50.904;4.200;2023-04-03T16:21:28;3.53;;;1.42;;
24157;SDS011;12316;50.904;4.200;2023-04-03T16:23:58;2.55;;;1.40;;
24157;SDS011;12316;50.904;4.200;2023-04-03T16:26:25;2.00;;;1.40;;
24157;SDS011;12316;50.904;4.200;2023-04-03T16:28:51;3.50;;;1.73;;
24157;SDS011;12316;50.904;4.200;2023-04-03T16:31:17;2.10;;;1.40;;
24157;SDS011;12316;50.904;4.200;2023-04-03T16:33:43;1.65;;;1.13;;
24157;SDS011;12316;50.904;4.200;2023-04-03T16:36:09;2.83;;;1.25;;
24157;SDS011;12316;50.904;4.200;2023-04-03T16:38:35;2.55;;;1.50;;
24157;SDS011;12316;50.904;4.200;2023-04-03T16:41:01;3.05;;;1.60;;